Terminal Aerodrome Forecast
Issued by NWS Twin Cities, MN

Home | Current Version | Previous Version | Graphics & Text | Print | Product List | Glossary On
Versions: 1 2 3 4 5 6 7 8 9 10 11 12 13 14 15 16 17 18 19 20 21 22
000
FTUS43 KMPX 180520
TAFSTC
TAF
KSTC 180520Z 1806/1906 20005KT P6SM SKC
     FM180900 13005KT P6SM SCT050 OVC090
     FM181200 12011KT P6SM OVC050 WS020/18050KT
     FM181600 15016G24KT P6SM FEW025 OVC050
     FM182100 21009KT P6SM SCT025 OVC050
     FM190000 35010G16KT P6SM OVC050=

USA.gov is the U.S. government's official web portal to all federal, state and local government web resources and services.